sensor_id;sensor_type;location;lat;lon;timestamp;temperature;humidity
13332;DHT22;6735;51.456;12.626;2023-01-15T00:00:46;9.30;82.80
13332;DHT22;6735;51.456;12.626;2023-01-15T00:03:11;9.40;82.80
13332;DHT22;6735;51.456;12.626;2023-01-15T00:05:37;9.40;82.70
13332;DHT22;6735;51.456;12.626;2023-01-15T00:08:03;9.40;82.70
13332;DHT22;6735;51.456;12.626;2023-01-15T00:10:28;9.40;82.80
13332;DHT22;6735;51.456;12.626;2023-01-15T00:12:54;9.40;82.70
13332;DHT22;6735;51.456;12.626;2023-01-15T00:15:19;9.40;82.70
13332;DHT22;6735;51.456;12.626;2023-01-15T00:17:45;9.40;82.70
13332;DHT22;6735;51.456;12.626;2023-01-15T00:20:10;9.40;82.70
13332;DHT22;6735;51.456;12.626;2023-01-15T00:22:36;9.50;82.70
13332;DHT22;6735;51.456;12.626;2023-01-15T00:25:01;9.40;82.70
13332;DHT22;6735;51.456;12.626;2023-01-15T00:27:45;9.50;82.50
13332;DHT22;6735;51.456;12.626;2023-01-15T00:30:13;9.50;82.50
13332;DHT22;6735;51.456;12.626;2023-01-15T00:32:40;9.50;82.60
13332;DHT22;6735;51.456;12.626;2023-01-15T00:35:06;9.50;82.70
13332;DHT22;6735;51.456;12.626;2023-01-15T00:37:34;9.50;82.80
13332;DHT22;6735;51.456;12.626;2023-01-15T00:39:59;9.40;82.80
13332;DHT22;6735;51.456;12.626;2023-01-15T00:42:25;9.50;82.90
13332;DHT22;6735;51.456;12.626;2023-01-15T00:44:50;9.50;82.90
13332;DHT22;6735;51.456;12.626;2023-01-15T00:47:15;9.40;83.00
13332;DHT22;6735;51.456;12.626;2023-01-15T00:49:42;9.40;83.10
13332;DHT22;6735;51.456;12.626;2023-01-15T00:52:08;9.50;83.20
13332;DHT22;6735;51.456;12.626;2023-01-15T00:54:34;9.50;83.30
13332;DHT22;6735;51.456;12.626;2023-01-15T00:57:00;9.50;83.80
13332;DHT22;6735;51.456;12.626;2023-01-15T00:59:25;9.50;84.20
13332;DHT22;6735;51.456;12.626;2023-01-15T01:01:51;9.50;84.60
13332;DHT22;6735;51.456;12.626;2023-01-15T01:04:16;9.50;84.70
13332;DHT22;6735;51.456;12.626;2023-01-15T01:06:42;9.40;84.80
13332;DHT22;6735;51.456;12.626;2023-01-15T01:09:11;9.40;84.70
13332;DHT22;6735;51.456;12.626;2023-01-15T01:11:37;9.50;84.30
13332;DHT22;6735;51.456;12.626;2023-01-15T01:14:02;9.50;84.30
13332;DHT22;6735;51.456;12.626;2023-01-15T01:16:31;9.50;84.20
13332;DHT22;6735;51.456;12.626;2023-01-15T01:18:59;9.50;84.20
13332;DHT22;6735;51.456;12.626;2023-01-15T01:21:26;9.60;84.00
13332;DHT22;6735;51.456;12.626;2023-01-15T01:23:52;9.60;84.00
13332;DHT22;6735;51.456;12.626;2023-01-15T01:26:18;9.60;84.00
13332;DHT22;6735;51.456;12.626;2023-01-15T01:28:48;9.60;84.10
13332;DHT22;6735;51.456;12.626;2023-01-15T01:31:14;9.60;84.00
13332;DHT22;6735;51.456;12.626;2023-01-15T01:33:39;9.70;84.00
13332;DHT22;6735;51.456;12.626;2023-01-15T01:36:05;9.60;84.00
13332;DHT22;6735;51.456;12.626;2023-01-15T01:38:30;9.70;84.00
13332;DHT22;6735;51.456;12.626;2023-01-15T01:40:56;9.70;83.90
13332;DHT22;6735;51.456;12.626;2023-01-15T01:43:28;9.70;83.80
13332;DHT22;6735;51.456;12.626;2023-01-15T01:45:54;9.70;83.80
13332;DHT22;6735;51.456;12.626;2023-01-15T01:48:25;9.70;83.60
13332;DHT22;6735;51.456;12.626;2023-01-15T01:50:55;9.80;83.60
13332;DHT22;6735;51.456;12.626;2023-01-15T01:53:26;9.80;83.50
13332;DHT22;6735;51.456;12.626;2023-01-15T01:55:53;9.80;83.50
13332;DHT22;6735;51.456;12.626;2023-01-15T01:58:20;9.80;83.60
13332;DHT22;6735;51.456;12.626;2023-01-15T02:00:48;9.80;83.60
13332;DHT22;6735;51.456;12.626;2023-01-15T02:03:15;9.90;83.50
13332;DHT22;6735;51.456;12.626;2023-01-15T02:05:48;9.90;83.50
13332;DHT22;6735;51.456;12.626;2023-01-15T02:08:14;9.90;83.40
13332;DHT22;6735;51.456;12.626;2023-01-15T02:10:40;9.90;83.50
13332;DHT22;6735;51.456;12.626;2023-01-15T02:13:07;9.90;83.50
13332;DHT22;6735;51.456;12.626;2023-01-15T02:15:41;9.90;83.50
13332;DHT22;6735;51.456;12.626;2023-01-15T02:18:29;9.90;83.60
13332;DHT22;6735;51.456;12.626;2023-01-15T02:21:13;10.00;83.50
13332;DHT22;6735;51.456;12.626;2023-01-15T02:27:15;10.00;83.50
13332;DHT22;6735;51.456;12.626;2023-01-15T02:30:00;10.00;83.40
13332;DHT22;6735;51.456;12.626;2023-01-15T02:35:09;10.10;83.50
13332;DHT22;6735;51.456;12.626;2023-01-15T02:37:40;10.10;83.50
13332;DHT22;6735;51.456;12.626;2023-01-15T02:40:09;10.00;83.50
13332;DHT22;6735;51.456;12.626;2023-01-15T02:42:36;10.10;83.50
13332;DHT22;6735;51.456;12.626;2023-01-15T02:45:05;10.10;83.50
13332;DHT22;6735;51.456;12.626;2023-01-15T02:47:34;10.10;83.50
13332;DHT22;6735;51.456;12.626;2023-01-15T02:50:03;10.10;83.50
13332;DHT22;6735;51.456;12.626;2023-01-15T02:52:39;10.10;83.50
13332;DHT22;6735;51.456;12.626;2023-01-15T02:55:11;10.10;83.50
13332;DHT22;6735;51.456;12.626;2023-01-15T02:57:38;10.10;83.50
13332;DHT22;6735;51.456;12.626;2023-01-15T03:00:08;10.10;83.60
13332;DHT22;6735;51.456;12.626;2023-01-15T03:02:54;10.10;84.00
13332;DHT22;6735;51.456;12.626;2023-01-15T03:05:34;10.10;84.50
13332;DHT22;6735;51.456;12.626;2023-01-15T03:08:02;10.10;85.00
13332;DHT22;6735;51.456;12.626;2023-01-15T03:11:01;10.00;85.60
13332;DHT22;6735;51.456;12.626;2023-01-15T03:13:44;10.00;85.90
13332;DHT22;6735;51.456;12.626;2023-01-15T03:24:36;9.90;86.90
13332;DHT22;6735;51.456;12.626;2023-01-15T03:27:03;9.90;87.00
13332;DHT22;6735;51.456;12.626;2023-01-15T03:29:32;9.80;87.10
13332;DHT22;6735;51.456;12.626;2023-01-15T03:31:59;9.80;87.40
13332;DHT22;6735;51.456;12.626;2023-01-15T03:34:25;9.80;87.50
13332;DHT22;6735;51.456;12.626;2023-01-15T03:36:51;9.80;87.70
13332;DHT22;6735;51.456;12.626;2023-01-15T03:39:17;9.70;87.80
13332;DHT22;6735;51.456;12.626;2023-01-15T03:41:56;9.80;87.80
13332;DHT22;6735;51.456;12.626;2023-01-15T03:44:31;9.70;87.80
13332;DHT22;6735;51.456;12.626;2023-01-15T03:47:19;9.80;87.90
13332;DHT22;6735;51.456;12.626;2023-01-15T03:50:12;9.70;88.00
13332;DHT22;6735;51.456;12.626;2023-01-15T03:52:47;9.80;88.10
13332;DHT22;6735;51.456;12.626;2023-01-15T03:55:18;9.70;88.20
13332;DHT22;6735;51.456;12.626;2023-01-15T03:57:57;9.70;88.20
13332;DHT22;6735;51.456;12.626;2023-01-15T04:00:33;9.80;88.20
13332;DHT22;6735;51.456;12.626;2023-01-15T04:03:01;9.80;88.20
13332;DHT22;6735;51.456;12.626;2023-01-15T04:05:29;9.80;88.30
13332;DHT22;6735;51.456;12.626;2023-01-15T04:07:56;9.70;88.30
13332;DHT22;6735;51.456;12.626;2023-01-15T04:10:22;9.80;88.30
13332;DHT22;6735;51.456;12.626;2023-01-15T04:12:48;9.80;88.30
13332;DHT22;6735;51.456;12.626;2023-01-15T04:15:14;9.80;88.30
13332;DHT22;6735;51.456;12.626;2023-01-15T04:17:39;9.80;88.20
13332;DHT22;6735;51.456;12.626;2023-01-15T04:20:05;9.80;88.30
13332;DHT22;6735;51.456;12.626;2023-01-15T04:22:31;9.80;88.20
13332;DHT22;6735;51.456;12.626;2023-01-15T04:24:57;9.80;88.40
13332;DHT22;6735;51.456;12.626;2023-01-15T04:27:22;9.80;88.40
13332;DHT22;6735;51.456;12.626;2023-01-15T04:29:48;9.80;88.30
13332;DHT22;6735;51.456;12.626;2023-01-15T04:32:13;9.80;88.20
13332;DHT22;6735;51.456;12.626;2023-01-15T04:34:39;9.80;88.40
13332;DHT22;6735;51.456;12.626;2023-01-15T04:37:05;9.80;88.60
13332;DHT22;6735;51.456;12.626;2023-01-15T04:39:31;9.80;88.70
13332;DHT22;6735;51.456;12.626;2023-01-15T04:41:56;9.80;88.80
13332;DHT22;6735;51.456;12.626;2023-01-15T04:44:40;9.80;89.10
13332;DHT22;6735;51.456;12.626;2023-01-15T04:47:06;9.80;89.20
13332;DHT22;6735;51.456;12.626;2023-01-15T04:49:32;9.80;89.20
13332;DHT22;6735;51.456;12.626;2023-01-15T04:51:58;9.70;89.00
13332;DHT22;6735;51.456;12.626;2023-01-15T04:54:23;9.70;89.00
13332;DHT22;6735;51.456;12.626;2023-01-15T04:56:51;9.50;88.10
13332;DHT22;6735;51.456;12.626;2023-01-15T04:59:21;9.00;86.60
13332;DHT22;6735;51.456;12.626;2023-01-15T05:01:47;8.70;86.40
13332;DHT22;6735;51.456;12.626;2023-01-15T05:04:13;8.50;86.80
13332;DHT22;6735;51.456;12.626;2023-01-15T05:06:39;8.30;86.90
13332;DHT22;6735;51.456;12.626;2023-01-15T05:09:05;8.20;86.70
13332;DHT22;6735;51.456;12.626;2023-01-15T05:11:33;7.90;85.80
13332;DHT22;6735;51.456;12.626;2023-01-15T05:13:59;7.60;85.60
13332;DHT22;6735;51.456;12.626;2023-01-15T05:16:26;7.30;85.60
13332;DHT22;6735;51.456;12.626;2023-01-15T05:18:53;7.20;86.20
13332;DHT22;6735;51.456;12.626;2023-01-15T05:21:24;7.10;86.30
13332;DHT22;6735;51.456;12.626;2023-01-15T05:23:51;7.00;86.30
13332;DHT22;6735;51.456;12.626;2023-01-15T05:26:18;7.00;86.30
13332;DHT22;6735;51.456;12.626;2023-01-15T05:28:44;7.00;86.30
13332;DHT22;6735;51.456;12.626;2023-01-15T05:31:15;6.90;86.50
13332;DHT22;6735;51.456;12.626;2023-01-15T05:33:41;6.90;86.60
13332;DHT22;6735;51.456;12.626;2023-01-15T05:36:13;6.80;86.40
13332;DHT22;6735;51.456;12.626;2023-01-15T05:38:39;6.70;86.30
13332;DHT22;6735;51.456;12.626;2023-01-15T05:41:06;6.70;86.20
13332;DHT22;6735;51.456;12.626;2023-01-15T05:43:52;6.60;86.00
13332;DHT22;6735;51.456;12.626;2023-01-15T05:46:17;6.60;86.00
13332;DHT22;6735;51.456;12.626;2023-01-15T05:48:43;6.50;85.70
13332;DHT22;6735;51.456;12.626;2023-01-15T05:51:09;6.40;86.00
13332;DHT22;6735;51.456;12.626;2023-01-15T05:53:34;6.40;86.00
13332;DHT22;6735;51.456;12.626;2023-01-15T05:56:00;6.40;86.10
13332;DHT22;6735;51.456;12.626;2023-01-15T05:58:26;6.40;86.20
13332;DHT22;6735;51.456;12.626;2023-01-15T06:00:51;6.40;86.10
13332;DHT22;6735;51.456;12.626;2023-01-15T06:03:20;6.30;85.90
13332;DHT22;6735;51.456;12.626;2023-01-15T06:05:52;6.30;85.90
13332;DHT22;6735;51.456;12.626;2023-01-15T06:08:18;6.20;85.90
13332;DHT22;6735;51.456;12.626;2023-01-15T06:10:44;6.20;85.90
13332;DHT22;6735;51.456;12.626;2023-01-15T06:13:10;6.20;86.00
13332;DHT22;6735;51.456;12.626;2023-01-15T06:15:35;6.20;86.00
13332;DHT22;6735;51.456;12.626;2023-01-15T06:18:01;6.20;85.80
13332;DHT22;6735;51.456;12.626;2023-01-15T06:20:26;6.20;86.00
13332;DHT22;6735;51.456;12.626;2023-01-15T06:22:52;6.20;86.00
13332;DHT22;6735;51.456;12.626;2023-01-15T06:25:17;6.20;86.10
13332;DHT22;6735;51.456;12.626;2023-01-15T06:27:43;6.20;86.30
13332;DHT22;6735;51.456;12.626;2023-01-15T06:30:10;6.30;86.30
13332;DHT22;6735;51.456;12.626;2023-01-15T06:32:36;6.30;86.30
13332;DHT22;6735;51.456;12.626;2023-01-15T06:35:01;6.40;86.20
13332;DHT22;6735;51.456;12.626;2023-01-15T06:37:27;6.40;86.20
13332;DHT22;6735;51.456;12.626;2023-01-15T06:39:52;6.40;86.30
13332;DHT22;6735;51.456;12.626;2023-01-15T06:42:18;6.40;86.30
13332;DHT22;6735;51.456;12.626;2023-01-15T06:45:02;6.50;86.50
13332;DHT22;6735;51.456;12.626;2023-01-15T06:47:46;6.40;86.30
13332;DHT22;6735;51.456;12.626;2023-01-15T06:50:12;6.40;86.40
13332;DHT22;6735;51.456;12.626;2023-01-15T06:52:38;6.40;86.30
13332;DHT22;6735;51.456;12.626;2023-01-15T06:55:04;6.40;86.50
13332;DHT22;6735;51.456;12.626;2023-01-15T06:57:29;6.40;86.40
13332;DHT22;6735;51.456;12.626;2023-01-15T06:59:55;6.40;86.40
13332;DHT22;6735;51.456;12.626;2023-01-15T07:02:21;6.30;86.30
13332;DHT22;6735;51.456;12.626;2023-01-15T07:04:46;6.40;86.40
13332;DHT22;6735;51.456;12.626;2023-01-15T07:07:17;6.40;86.20
13332;DHT22;6735;51.456;12.626;2023-01-15T07:09:43;6.30;86.00
13332;DHT22;6735;51.456;12.626;2023-01-15T07:12:09;6.40;86.00
13332;DHT22;6735;51.456;12.626;2023-01-15T07:14:35;6.40;85.90
13332;DHT22;6735;51.456;12.626;2023-01-15T07:17:01;6.30;85.70
13332;DHT22;6735;51.456;12.626;2023-01-15T07:19:26;6.40;85.50
13332;DHT22;6735;51.456;12.626;2023-01-15T07:21:52;6.40;85.50
13332;DHT22;6735;51.456;12.626;2023-01-15T07:24:18;6.30;85.50
13332;DHT22;6735;51.456;12.626;2023-01-15T07:26:44;6.40;85.90
13332;DHT22;6735;51.456;12.626;2023-01-15T07:29:10;6.40;86.00
13332;DHT22;6735;51.456;12.626;2023-01-15T07:31:36;6.40;86.10
13332;DHT22;6735;51.456;12.626;2023-01-15T07:34:02;6.40;86.20
13332;DHT22;6735;51.456;12.626;2023-01-15T07:36:28;6.40;86.20
13332;DHT22;6735;51.456;12.626;2023-01-15T07:38:54;6.40;86.20
13332;DHT22;6735;51.456;12.626;2023-01-15T07:41:19;6.40;86.20
13332;DHT22;6735;51.456;12.626;2023-01-15T07:44:03;6.40;86.00
13332;DHT22;6735;51.456;12.626;2023-01-15T07:46:47;6.40;85.70
13332;DHT22;6735;51.456;12.626;2023-01-15T07:49:31;6.40;85.70
13332;DHT22;6735;51.456;12.626;2023-01-15T07:52:17;6.30;85.30
13332;DHT22;6735;51.456;12.626;2023-01-15T07:54:44;6.30;85.00
13332;DHT22;6735;51.456;12.626;2023-01-15T07:57:11;6.20;84.90
13332;DHT22;6735;51.456;12.626;2023-01-15T07:59:37;6.20;84.40
13332;DHT22;6735;51.456;12.626;2023-01-15T08:02:02;6.30;84.70
13332;DHT22;6735;51.456;12.626;2023-01-15T08:04:28;6.20;84.50
13332;DHT22;6735;51.456;12.626;2023-01-15T08:06:53;6.30;83.90
13332;DHT22;6735;51.456;12.626;2023-01-15T08:09:19;6.30;84.20
13332;DHT22;6735;51.456;12.626;2023-01-15T08:11:44;6.30;83.90
13332;DHT22;6735;51.456;12.626;2023-01-15T08:14:28;6.30;84.20
13332;DHT22;6735;51.456;12.626;2023-01-15T08:17:12;6.20;84.10
13332;DHT22;6735;51.456;12.626;2023-01-15T08:19:38;6.20;84.10
13332;DHT22;6735;51.456;12.626;2023-01-15T08:22:03;6.20;83.80
13332;DHT22;6735;51.456;12.626;2023-01-15T08:24:29;6.20;84.10
13332;DHT22;6735;51.456;12.626;2023-01-15T08:26:54;6.20;83.90
13332;DHT22;6735;51.456;12.626;2023-01-15T08:29:21;6.20;83.90
13332;DHT22;6735;51.456;12.626;2023-01-15T08:31:46;6.20;84.10
13332;DHT22;6735;51.456;12.626;2023-01-15T08:34:12;6.20;83.80
13332;DHT22;6735;51.456;12.626;2023-01-15T08:36:37;6.20;84.10
13332;DHT22;6735;51.456;12.626;2023-01-15T08:39:03;6.20;84.20
13332;DHT22;6735;51.456;12.626;2023-01-15T08:41:29;6.20;84.20
13332;DHT22;6735;51.456;12.626;2023-01-15T08:43:55;6.20;84.50
13332;DHT22;6735;51.456;12.626;2023-01-15T08:46:20;6.20;84.60
13332;DHT22;6735;51.456;12.626;2023-01-15T08:48:45;6.20;84.70
13332;DHT22;6735;51.456;12.626;2023-01-15T08:51:12;6.20;84.70
13332;DHT22;6735;51.456;12.626;2023-01-15T08:53:38;6.20;84.60
13332;DHT22;6735;51.456;12.626;2023-01-15T08:56:04;6.20;84.30
13332;DHT22;6735;51.456;12.626;2023-01-15T08:58:35;6.20;84.20
13332;DHT22;6735;51.456;12.626;2023-01-15T09:01:05;6.20;83.50
13332;DHT22;6735;51.456;12.626;2023-01-15T09:03:31;6.30;83.80
13332;DHT22;6735;51.456;12.626;2023-01-15T09:05:58;6.30;83.50
13332;DHT22;6735;51.456;12.626;2023-01-15T09:08:24;6.30;83.10
13332;DHT22;6735;51.456;12.626;2023-01-15T09:10:49;6.30;82.80
13332;DHT22;6735;51.456;12.626;2023-01-15T09:13:15;6.40;83.00
13332;DHT22;6735;51.456;12.626;2023-01-15T09:15:40;6.40;82.80
13332;DHT22;6735;51.456;12.626;2023-01-15T09:18:06;6.50;82.60
13332;DHT22;6735;51.456;12.626;2023-01-15T09:20:35;6.40;82.40
13332;DHT22;6735;51.456;12.626;2023-01-15T09:23:00;6.50;82.60
13332;DHT22;6735;51.456;12.626;2023-01-15T09:25:26;6.50;82.50
13332;DHT22;6735;51.456;12.626;2023-01-15T09:27:54;6.50;82.20
13332;DHT22;6735;51.456;12.626;2023-01-15T09:30:20;6.60;82.20
13332;DHT22;6735;51.456;12.626;2023-01-15T09:32:47;6.60;82.10
13332;DHT22;6735;51.456;12.626;2023-01-15T09:35:13;6.60;81.90
13332;DHT22;6735;51.456;12.626;2023-01-15T09:37:38;6.60;81.50
13332;DHT22;6735;51.456;12.626;2023-01-15T09:40:05;6.60;81.00
13332;DHT22;6735;51.456;12.626;2023-01-15T09:42:51;6.60;81.10
13332;DHT22;6735;51.456;12.626;2023-01-15T09:45:44;6.60;81.00
13332;DHT22;6735;51.456;12.626;2023-01-15T09:53:52;6.60;81.00
13332;DHT22;6735;51.456;12.626;2023-01-15T09:56:23;6.70;80.70
13332;DHT22;6735;51.456;12.626;2023-01-15T09:58:50;6.70;80.90
13332;DHT22;6735;51.456;12.626;2023-01-15T10:01:18;6.70;81.00
13332;DHT22;6735;51.456;12.626;2023-01-15T10:03:50;6.70;80.80
13332;DHT22;6735;51.456;12.626;2023-01-15T10:07:02;6.80;80.70
13332;DHT22;6735;51.456;12.626;2023-01-15T10:09:34;6.90;80.20
13332;DHT22;6735;51.456;12.626;2023-01-15T10:12:21;6.90;80.40
13332;DHT22;6735;51.456;12.626;2023-01-15T10:17:42;7.10;79.80
13332;DHT22;6735;51.456;12.626;2023-01-15T10:20:40;7.10;79.80
13332;DHT22;6735;51.456;12.626;2023-01-15T10:23:32;7.10;78.70
13332;DHT22;6735;51.456;12.626;2023-01-15T10:28:50;7.40;78.40
13332;DHT22;6735;51.456;12.626;2023-01-15T10:31:21;7.40;78.20
13332;DHT22;6735;51.456;12.626;2023-01-15T10:34:07;7.60;79.50
13332;DHT22;6735;51.456;12.626;2023-01-15T10:36:45;7.60;78.70
13332;DHT22;6735;51.456;12.626;2023-01-15T10:39:27;7.50;76.60
13332;DHT22;6735;51.456;12.626;2023-01-15T10:42:00;7.50;77.80
13332;DHT22;6735;51.456;12.626;2023-01-15T10:44:49;7.50;76.90
13332;DHT22;6735;51.456;12.626;2023-01-15T10:47:19;7.60;78.00
13332;DHT22;6735;51.456;12.626;2023-01-15T10:49:47;7.60;77.00
13332;DHT22;6735;51.456;12.626;2023-01-15T10:58:24;7.70;76.00
13332;DHT22;6735;51.456;12.626;2023-01-15T11:00:59;7.80;76.20
13332;DHT22;6735;51.456;12.626;2023-01-15T11:03:39;8.00;75.60
13332;DHT22;6735;51.456;12.626;2023-01-15T11:06:06;7.90;75.10
13332;DHT22;6735;51.456;12.626;2023-01-15T11:08:36;7.90;74.30
13332;DHT22;6735;51.456;12.626;2023-01-15T11:11:20;7.90;74.10
13332;DHT22;6735;51.456;12.626;2023-01-15T11:13:56;8.00;74.50
13332;DHT22;6735;51.456;12.626;2023-01-15T11:16:42;8.10;73.20
13332;DHT22;6735;51.456;12.626;2023-01-15T11:19:32;8.20;73.30
13332;DHT22;6735;51.456;12.626;2023-01-15T11:22:08;8.20;73.30
13332;DHT22;6735;51.456;12.626;2023-01-15T11:24:52;8.20;73.20
13332;DHT22;6735;51.456;12.626;2023-01-15T11:27:24;8.20;72.60
13332;DHT22;6735;51.456;12.626;2023-01-15T11:29:56;8.30;72.10
13332;DHT22;6735;51.456;12.626;2023-01-15T11:34:55;8.30;72.90
13332;DHT22;6735;51.456;12.626;2023-01-15T11:37:21;8.40;72.10
13332;DHT22;6735;51.456;12.626;2023-01-15T11:39:55;8.30;71.30
13332;DHT22;6735;51.456;12.626;2023-01-15T11:42:21;8.20;70.10
13332;DHT22;6735;51.456;12.626;2023-01-15T11:45:15;8.10;70.60
13332;DHT22;6735;51.456;12.626;2023-01-15T11:48:00;8.10;70.90
13332;DHT22;6735;51.456;12.626;2023-01-15T11:51:06;8.10;70.80
13332;DHT22;6735;51.456;12.626;2023-01-15T11:53:37;8.10;70.30
13332;DHT22;6735;51.456;12.626;2023-01-15T11:56:08;8.10;70.40
13332;DHT22;6735;51.456;12.626;2023-01-15T11:58:50;8.20;69.80
13332;DHT22;6735;51.456;12.626;2023-01-15T12:01:26;8.20;70.20
13332;DHT22;6735;51.456;12.626;2023-01-15T12:03:57;8.20;69.50
13332;DHT22;6735;51.456;12.626;2023-01-15T12:06:25;8.20;70.00
13332;DHT22;6735;51.456;12.626;2023-01-15T12:09:15;8.20;69.90
13332;DHT22;6735;51.456;12.626;2023-01-15T12:23:11;8.10;69.60
13332;DHT22;6735;51.456;12.626;2023-01-15T12:25:55;8.10;69.30
13332;DHT22;6735;51.456;12.626;2023-01-15T12:28:28;8.10;69.40
13332;DHT22;6735;51.456;12.626;2023-01-15T12:31:09;8.00;68.20
13332;DHT22;6735;51.456;12.626;2023-01-15T12:33:47;7.90;68.00
13332;DHT22;6735;51.456;12.626;2023-01-15T12:36:18;7.90;68.20
13332;DHT22;6735;51.456;12.626;2023-01-15T12:41:33;7.90;67.80
13332;DHT22;6735;51.456;12.626;2023-01-15T12:44:24;7.90;68.40
13332;DHT22;6735;51.456;12.626;2023-01-15T12:47:15;8.00;66.80
13332;DHT22;6735;51.456;12.626;2023-01-15T12:49:48;8.00;67.10
13332;DHT22;6735;51.456;12.626;2023-01-15T12:52:20;8.00;67.10
13332;DHT22;6735;51.456;12.626;2023-01-15T12:55:00;8.00;66.90
13332;DHT22;6735;51.456;12.626;2023-01-15T12:57:35;7.90;66.80
13332;DHT22;6735;51.456;12.626;2023-01-15T13:00:23;7.90;67.20
13332;DHT22;6735;51.456;12.626;2023-01-15T13:05:34;7.70;67.00
13332;DHT22;6735;51.456;12.626;2023-01-15T13:08:29;7.80;68.00
13332;DHT22;6735;51.456;12.626;2023-01-15T13:10:57;7.80;67.30
13332;DHT22;6735;51.456;12.626;2023-01-15T13:13:36;7.60;67.60
13332;DHT22;6735;51.456;12.626;2023-01-15T13:16:22;7.70;67.70
13332;DHT22;6735;51.456;12.626;2023-01-15T13:21:54;7.60;67.40
13332;DHT22;6735;51.456;12.626;2023-01-15T13:24:56;7.60;67.40
13332;DHT22;6735;51.456;12.626;2023-01-15T13:27:59;7.60;66.90
13332;DHT22;6735;51.456;12.626;2023-01-15T13:31:12;7.70;67.70
13332;DHT22;6735;51.456;12.626;2023-01-15T13:33:47;7.70;68.10
13332;DHT22;6735;51.456;12.626;2023-01-15T13:36:17;7.60;68.40
13332;DHT22;6735;51.456;12.626;2023-01-15T13:38:48;7.50;67.80
13332;DHT22;6735;51.456;12.626;2023-01-15T13:41:21;7.50;67.90
13332;DHT22;6735;51.456;12.626;2023-01-15T13:44:20;7.50;67.80
13332;DHT22;6735;51.456;12.626;2023-01-15T13:47:10;7.50;68.20
13332;DHT22;6735;51.456;12.626;2023-01-15T13:49:38;7.50;68.00
13332;DHT22;6735;51.456;12.626;2023-01-15T13:52:06;7.50;68.50
13332;DHT22;6735;51.456;12.626;2023-01-15T13:54:38;7.40;68.40
13332;DHT22;6735;51.456;12.626;2023-01-15T13:57:32;7.40;68.60
13332;DHT22;6735;51.456;12.626;2023-01-15T14:00:07;7.40;68.50
13332;DHT22;6735;51.456;12.626;2023-01-15T14:02:37;7.30;68.80
13332;DHT22;6735;51.456;12.626;2023-01-15T14:07:55;7.40;69.60
13332;DHT22;6735;51.456;12.626;2023-01-15T14:10:33;7.40;69.10
13332;DHT22;6735;51.456;12.626;2023-01-15T14:15:44;7.30;68.90
13332;DHT22;6735;51.456;12.626;2023-01-15T14:18:36;7.20;69.20
13332;DHT22;6735;51.456;12.626;2023-01-15T14:21:26;7.20;69.30
13332;DHT22;6735;51.456;12.626;2023-01-15T14:24:14;7.20;69.20
13332;DHT22;6735;51.456;12.626;2023-01-15T14:26:53;7.10;69.10
13332;DHT22;6735;51.456;12.626;2023-01-15T14:29:36;7.00;69.60
13332;DHT22;6735;51.456;12.626;2023-01-15T14:32:25;7.10;69.40
13332;DHT22;6735;51.456;12.626;2023-01-15T14:34:55;7.10;69.70
13332;DHT22;6735;51.456;12.626;2023-01-15T14:37:24;7.00;69.10
13332;DHT22;6735;51.456;12.626;2023-01-15T14:39:53;6.90;69.40
13332;DHT22;6735;51.456;12.626;2023-01-15T14:47:47;6.80;68.90
13332;DHT22;6735;51.456;12.626;2023-01-15T14:50:33;6.90;69.00
13332;DHT22;6735;51.456;12.626;2023-01-15T14:55:51;6.80;68.70
13332;DHT22;6735;51.456;12.626;2023-01-15T15:00:52;6.70;69.10
13332;DHT22;6735;51.456;12.626;2023-01-15T15:03:23;6.70;69.50
13332;DHT22;6735;51.456;12.626;2023-01-15T15:05:50;6.50;69.80
13332;DHT22;6735;51.456;12.626;2023-01-15T15:08:17;6.50;69.50
13332;DHT22;6735;51.456;12.626;2023-01-15T15:10:45;6.50;69.80
13332;DHT22;6735;51.456;12.626;2023-01-15T15:13:27;6.40;69.80
13332;DHT22;6735;51.456;12.626;2023-01-15T15:18:46;6.30;70.00
13332;DHT22;6735;51.456;12.626;2023-01-15T15:21:19;6.20;69.50
13332;DHT22;6735;51.456;12.626;2023-01-15T15:23:52;6.20;70.00
13332;DHT22;6735;51.456;12.626;2023-01-15T15:26:31;6.10;69.80
13332;DHT22;6735;51.456;12.626;2023-01-15T15:29:14;6.10;69.70
13332;DHT22;6735;51.456;12.626;2023-01-15T15:31:46;6.10;69.80
13332;DHT22;6735;51.456;12.626;2023-01-15T15:34:34;6.10;70.30
13332;DHT22;6735;51.456;12.626;2023-01-15T15:37:14;6.10;70.70
13332;DHT22;6735;51.456;12.626;2023-01-15T15:40:03;6.10;70.30
13332;DHT22;6735;51.456;12.626;2023-01-15T15:42:39;6.00;70.30
13332;DHT22;6735;51.456;12.626;2023-01-15T15:45:30;6.00;70.40
13332;DHT22;6735;51.456;12.626;2023-01-15T15:48:28;5.90;70.40
13332;DHT22;6735;51.456;12.626;2023-01-15T15:51:32;5.90;70.30
13332;DHT22;6735;51.456;12.626;2023-01-15T15:54:12;5.80;70.60
13332;DHT22;6735;51.456;12.626;2023-01-15T15:56:46;5.80;70.60
13332;DHT22;6735;51.456;12.626;2023-01-15T16:01:53;5.70;70.80
13332;DHT22;6735;51.456;12.626;2023-01-15T16:04:19;5.70;71.20
13332;DHT22;6735;51.456;12.626;2023-01-15T16:06:46;5.60;71.30
13332;DHT22;6735;51.456;12.626;2023-01-15T16:09:13;5.60;71.50
13332;DHT22;6735;51.456;12.626;2023-01-15T16:11:43;5.50;71.60
13332;DHT22;6735;51.456;12.626;2023-01-15T16:14:11;5.60;71.30
13332;DHT22;6735;51.456;12.626;2023-01-15T16:16:40;5.60;71.90
13332;DHT22;6735;51.456;12.626;2023-01-15T16:19:12;5.50;71.60
13332;DHT22;6735;51.456;12.626;2023-01-15T16:21:40;5.50;71.70
13332;DHT22;6735;51.456;12.626;2023-01-15T16:24:08;5.40;71.60
13332;DHT22;6735;51.456;12.626;2023-01-15T16:26:42;5.50;71.70
13332;DHT22;6735;51.456;12.626;2023-01-15T16:29:21;5.50;71.50
13332;DHT22;6735;51.456;12.626;2023-01-15T16:31:49;5.40;71.70
13332;DHT22;6735;51.456;12.626;2023-01-15T16:34:21;5.50;71.50
13332;DHT22;6735;51.456;12.626;2023-01-15T16:36:47;5.40;71.40
13332;DHT22;6735;51.456;12.626;2023-01-15T16:39:20;5.40;71.50
13332;DHT22;6735;51.456;12.626;2023-01-15T16:41:48;5.50;71.40
13332;DHT22;6735;51.456;12.626;2023-01-15T16:44:30;5.40;71.40
13332;DHT22;6735;51.456;12.626;2023-01-15T16:46:59;5.30;71.60
13332;DHT22;6735;51.456;12.626;2023-01-15T16:49:28;5.30;71.90
13332;DHT22;6735;51.456;12.626;2023-01-15T16:51:55;5.20;71.90
13332;DHT22;6735;51.456;12.626;2023-01-15T16:57:03;5.20;71.90
13332;DHT22;6735;51.456;12.626;2023-01-15T17:04:29;5.20;72.00
13332;DHT22;6735;51.456;12.626;2023-01-15T17:06:55;5.20;72.20
13332;DHT22;6735;51.456;12.626;2023-01-15T17:09:22;5.10;72.40
13332;DHT22;6735;51.456;12.626;2023-01-15T17:11:51;5.10;72.50
13332;DHT22;6735;51.456;12.626;2023-01-15T17:16:42;5.10;72.60
13332;DHT22;6735;51.456;12.626;2023-01-15T17:19:09;5.20;72.40
13332;DHT22;6735;51.456;12.626;2023-01-15T17:21:36;5.10;72.40
13332;DHT22;6735;51.456;12.626;2023-01-15T17:24:04;5.10;72.60
13332;DHT22;6735;51.456;12.626;2023-01-15T17:26:31;5.20;72.60
13332;DHT22;6735;51.456;12.626;2023-01-15T17:28:56;5.20;72.50
13332;DHT22;6735;51.456;12.626;2023-01-15T17:31:30;5.10;72.50
13332;DHT22;6735;51.456;12.626;2023-01-15T17:34:00;5.20;72.60
13332;DHT22;6735;51.456;12.626;2023-01-15T17:36:27;5.10;72.50
13332;DHT22;6735;51.456;12.626;2023-01-15T17:38:53;5.20;75.40